createdAt,value
2018-05-23T01:02:15.052Z,18.64
2018-05-23T01:04:47.854Z,18.66
2018-05-23T01:07:20.716Z,18.69
2018-05-23T01:09:53.475Z,18.70
2018-05-23T01:12:26.170Z,18.72
2018-05-23T01:14:59.292Z,18.73
2018-05-23T01:17:31.575Z,18.75
2018-05-23T01:20:03.609Z,18.73
2018-05-23T01:22:36.155Z,18.71
2018-05-23T01:25:08.531Z,18.67
2018-05-23T01:27:40.537Z,18.59
2018-05-23T01:30:12.814Z,18.52
2018-05-23T01:32:44.857Z,18.47
2018-05-23T01:35:16.692Z,18.47
2018-05-23T01:37:49.211Z,18.49
2018-05-23T01:40:22.660Z,18.49
2018-05-23T01:42:55.151Z,18.42
2018-05-23T01:45:29.973Z,18.31
2018-05-23T01:48:03.471Z,18.22
2018-05-23T01:50:36.054Z,18.14
2018-05-23T01:53:09.160Z,18.08
2018-05-23T01:55:44.854Z,18.02
2018-05-23T01:58:17.978Z,18.03
2018-05-23T02:00:50.812Z,18.06
2018-05-23T02:03:23.051Z,18.07
2018-05-23T02:05:56.658Z,18.04
2018-05-23T02:08:30.814Z,18.03
2018-05-23T02:11:05.498Z,18.02
2018-05-23T02:13:37.475Z,18.00
2018-05-23T02:16:10.232Z,17.93
2018-05-23T02:18:42.313Z,17.87
2018-05-23T02:21:14.916Z,17.80
2018-05-23T02:23:48.913Z,17.81
2018-05-23T02:26:23.650Z,17.78
2018-05-23T02:28:56.634Z,17.76
2018-05-23T02:31:29.574Z,17.72
2018-05-23T02:34:01.919Z,17.70
2018-05-23T02:36:35.952Z,17.67
2018-05-23T02:39:10.153Z,17.62
2018-05-23T02:41:42.753Z,17.55
2018-05-23T02:44:14.796Z,17.50
2018-05-23T02:46:46.955Z,17.52
2018-05-23T02:49:19.153Z,17.50
2018-05-23T02:51:51.998Z,17.43
2018-05-23T02:54:24.112Z,17.36
2018-05-23T02:56:56.171Z,17.32
2018-05-23T02:59:28.873Z,17.29
2018-05-23T03:02:02.200Z,17.26
2018-05-23T03:04:34.211Z,17.21
2018-05-23T03:07:07.193Z,17.18
2018-05-23T03:09:40.671Z,17.12
2018-05-23T03:12:14.648Z,17.09
2018-05-23T03:14:48.195Z,17.09
2018-05-23T03:17:20.969Z,17.08
2018-05-23T03:19:53.453Z,17.08
2018-05-23T03:22:29.252Z,17.03
2018-05-23T03:25:02.292Z,17.00
2018-05-23T03:27:35.471Z,17.00
2018-05-23T03:30:10.015Z,16.98
2018-05-23T03:32:42.735Z,16.93
2018-05-23T03:35:18.174Z,16.89
2018-05-23T03:37:52.217Z,16.88
2018-05-23T03:40:24.577Z,16.84
2018-05-23T03:42:56.735Z,16.87
2018-05-23T03:45:31.702Z,16.88
2018-05-23T03:48:04.260Z,16.86
2018-05-23T03:50:36.399Z,16.88
2018-05-23T03:53:09.132Z,16.90
2018-05-23T03:55:43.020Z,16.95
2018-05-23T03:58:17.417Z,16.98
2018-05-23T04:04:06.293Z,16.92
2018-05-23T04:06:55.688Z,16.93
2018-05-23T04:09:28.276Z,16.93
2018-05-23T04:12:04.301Z,16.93
2018-05-23T04:14:41.455Z,16.97
2018-05-23T04:17:14.456Z,16.99
2018-05-23T04:19:46.778Z,17.04
2018-05-23T04:22:19.953Z,17.07
2018-05-23T04:24:53.262Z,17.09
2018-05-23T04:27:26.157Z,17.09
2018-05-23T04:30:01.930Z,17.15
2018-05-23T04:32:35.793Z,17.21
2018-05-23T04:35:08.141Z,17.25
2018-05-23T04:37:41.438Z,17.26
2018-05-23T04:40:15.712Z,17.27
2018-05-23T04:42:48.630Z,17.26
2018-05-23T04:45:21.117Z,17.27
2018-05-23T04:47:55.873Z,17.27
2018-05-23T04:50:29.038Z,17.30
2018-05-23T04:53:02.637Z,17.32
2018-05-23T04:55:34.894Z,17.36
2018-05-23T04:58:08.595Z,17.41
2018-05-23T05:00:41.336Z,17.44
2018-05-23T05:03:14.358Z,17.45
2018-05-23T05:05:49.903Z,17.48
2018-05-23T05:08:25.176Z,17.52
2018-05-23T05:10:57.677Z,17.54
2018-05-23T05:13:33.354Z,17.54
2018-05-23T05:16:08.990Z,17.55
2018-05-23T05:18:43.655Z,17.55
2018-05-23T05:21:18.130Z,17.55
2018-05-23T05:23:50.412Z,17.58
2018-05-23T05:26:28.001Z,17.61
2018-05-23T05:29:02.692Z,17.63
2018-05-23T05:31:36.729Z,17.65
2018-05-23T05:34:10.295Z,17.71
2018-05-23T05:36:44.454Z,17.74
2018-05-23T05:39:19.873Z,17.80
2018-05-23T05:41:55.372Z,17.85
2018-05-23T05:44:30.297Z,17.90
2018-05-23T05:47:02.943Z,17.98
2018-05-23T05:49:37.042Z,18.07
2018-05-23T05:52:11.396Z,18.17
2018-05-23T05:54:46.998Z,18.28
2018-05-23T05:57:20.572Z,18.40
2018-05-23T05:59:55.155Z,18.51
2018-05-23T06:02:28.072Z,18.66
2018-05-23T06:05:02.734Z,18.75
2018-05-23T06:07:37.594Z,18.79
2018-05-23T06:10:13.115Z,18.87
2018-05-23T06:12:48.697Z,18.95
2018-05-23T06:15:20.853Z,19.02
2018-05-23T06:17:55.454Z,19.05
2018-05-23T06:20:28.680Z,19.06
2018-05-23T06:23:02.582Z,19.09
2018-05-23T06:25:39.672Z,19.12
2018-05-23T06:28:12.317Z,19.18
2018-05-23T06:30:44.776Z,19.22
2018-05-23T06:33:18.533Z,19.28
2018-05-23T06:35:55.002Z,19.30
2018-05-23T06:38:28.676Z,19.32
2018-05-23T06:41:01.914Z,19.30
2018-05-23T06:43:34.338Z,19.30
2018-05-23T06:46:09.653Z,19.30
2018-05-23T06:48:43.497Z,19.31
2018-05-23T06:51:17.463Z,19.33
2018-05-23T06:53:50.798Z,19.43
2018-05-23T06:56:24.836Z,19.60
2018-05-23T06:58:58.418Z,19.93
2018-05-23T07:01:33.734Z,20.52
2018-05-23T07:04:07.738Z,21.23
2018-05-23T07:06:42.777Z,21.96
2018-05-23T07:09:17.418Z,22.62
2018-05-23T07:11:51.757Z,23.15
2018-05-23T07:14:24.600Z,23.60
2018-05-23T07:16:59.495Z,23.85
2018-05-23T07:19:35.856Z,23.96
2018-05-23T07:22:08.112Z,23.99
2018-05-23T07:24:43.540Z,23.84
2018-05-23T07:27:16.734Z,23.66
2018-05-23T07:29:54.551Z,23.56
2018-05-23T07:32:27.177Z,23.46
2018-05-23T07:34:59.391Z,23.30
2018-05-23T07:37:32.213Z,23.21
2018-05-23T07:40:07.428Z,23.07
2018-05-23T07:42:42.712Z,22.98
2018-05-23T07:45:17.941Z,22.90
2018-05-23T07:47:51.716Z,22.81
2018-05-23T07:50:27.218Z,22.76
2018-05-23T07:53:01.257Z,22.69
2018-05-23T07:55:35.216Z,22.64
2018-05-23T07:58:10.692Z,22.59
2018-05-23T08:00:43.974Z,22.57
2018-05-23T08:03:19.735Z,22.56
2018-05-23T08:05:53.357Z,22.55
2018-05-23T08:08:26.938Z,22.54
2018-05-23T08:11:01.783Z,22.52
2018-05-23T08:13:35.994Z,22.49
2018-05-23T08:16:09.359Z,22.49
2018-05-23T08:18:43.542Z,22.48
2018-05-23T08:21:16.474Z,22.49
2018-05-23T08:23:51.638Z,22.54
2018-05-23T08:26:25.318Z,22.62
2018-05-23T08:29:01.598Z,22.71
2018-05-23T08:31:34.933Z,22.84
2018-05-23T08:34:09.238Z,22.99
2018-05-23T08:36:45.716Z,23.15
2018-05-23T08:39:18.935Z,23.33
2018-05-23T08:41:53.436Z,23.50
2018-05-23T08:44:26.174Z,23.62
2018-05-23T08:47:04.300Z,23.72
2018-05-23T08:49:39.293Z,23.85
2018-05-23T08:52:12.333Z,23.96
2018-05-23T08:54:46.314Z,24.11
2018-05-23T08:57:26.415Z,24.29
2018-05-23T09:00:00.130Z,24.54
2018-05-23T09:02:35.619Z,24.78
2018-05-23T09:05:11.982Z,25.07
2018-05-23T09:07:45.834Z,25.34
2018-05-23T09:10:18.894Z,25.53
2018-05-23T09:12:51.823Z,25.67
2018-05-23T09:15:25.893Z,25.87
2018-05-23T09:17:58.917Z,26.03
2018-05-23T09:20:34.877Z,26.07
2018-05-23T09:23:10.456Z,26.20
2018-05-23T09:25:44.857Z,26.40
2018-05-23T09:28:25.392Z,26.44
2018-05-23T09:30:58.812Z,26.46
2018-05-23T09:33:31.512Z,26.44
2018-05-23T09:36:05.172Z,26.54
2018-05-23T09:38:42.174Z,26.75
2018-05-23T09:41:17.514Z,26.76
2018-05-23T09:43:53.110Z,26.67
2018-05-23T09:46:29.571Z,26.67
2018-05-23T09:49:06.613Z,26.73
2018-05-23T09:51:41.078Z,26.69
2018-05-23T09:54:14.453Z,26.67
2018-05-23T09:56:47.470Z,26.63
2018-05-23T09:59:21.038Z,26.54
2018-05-23T10:01:54.951Z,26.49
2018-05-23T10:04:26.796Z,26.52
2018-05-23T10:06:59.108Z,26.72
2018-05-23T10:09:31.932Z,27.03
2018-05-23T10:12:05.017Z,27.39
2018-05-23T10:14:39.497Z,27.75
2018-05-23T10:17:13.416Z,28.15
2018-05-23T10:19:47.336Z,28.43
2018-05-23T10:22:20.275Z,28.49
2018-05-23T10:24:58.280Z,28.60
2018-05-23T10:27:39.830Z,28.52
2018-05-23T10:30:13.693Z,28.52
2018-05-23T10:32:46.059Z,28.65
2018-05-23T10:35:24.896Z,28.55
2018-05-23T10:37:59.135Z,28.27
2018-05-23T10:40:36.375Z,28.05
2018-05-23T10:43:10.659Z,27.91
2018-05-23T10:45:42.955Z,27.72
2018-05-23T10:48:17.553Z,27.40
2018-05-23T10:50:55.512Z,27.17
2018-05-23T10:53:33.395Z,26.97
2018-05-23T10:56:06.755Z,26.84
2018-05-23T10:58:39.791Z,26.91
2018-05-23T11:01:14.335Z,27.00
2018-05-23T11:03:50.560Z,27.35
2018-05-23T11:06:24.236Z,27.76
2018-05-23T11:08:59.530Z,27.95
2018-05-23T11:11:31.693Z,28.01
2018-05-23T11:14:07.132Z,28.02
2018-05-23T11:16:41.237Z,27.96
2018-05-23T11:19:17.412Z,27.94
2018-05-23T11:21:50.351Z,27.94
2018-05-23T11:24:24.398Z,27.93
2018-05-23T11:26:56.537Z,27.98
2018-05-23T11:29:29.350Z,28.08
2018-05-23T11:32:02.415Z,28.24
2018-05-23T11:34:34.856Z,28.23
2018-05-23T11:37:08.415Z,28.16
2018-05-23T11:39:40.780Z,28.06
2018-05-23T11:42:16.155Z,28.06
2018-05-23T11:44:50.427Z,28.21
2018-05-23T11:47:23.497Z,28.34
2018-05-23T11:49:58.672Z,28.49
2018-05-23T11:52:30.403Z,28.62
2018-05-23T11:55:04.372Z,28.92
2018-05-23T11:57:40.598Z,29.27
2018-05-23T12:00:17.695Z,29.48
2018-05-23T12:02:51.369Z,29.85
2018-05-23T12:05:25.317Z,30.21
2018-05-23T12:08:01.174Z,30.48
2018-05-23T12:10:33.522Z,30.69
2018-05-23T12:13:06.713Z,30.74
2018-05-23T12:15:39.895Z,30.73
2018-05-23T12:18:12.600Z,30.91
2018-05-23T12:20:44.435Z,31.06
2018-05-23T12:23:22.232Z,30.93
2018-05-23T12:25:57.053Z,30.51
2018-05-23T12:28:32.576Z,30.14
2018-05-23T12:31:07.511Z,29.92
2018-05-23T12:33:39.836Z,29.65
2018-05-23T12:36:15.896Z,29.43
2018-05-23T12:38:50.531Z,29.47
2018-05-23T12:41:23.712Z,29.70
2018-05-23T12:43:56.740Z,30.01
2018-05-23T12:46:30.575Z,30.02
2018-05-23T12:49:10.261Z,29.81
2018-05-23T12:51:43.777Z,29.53
2018-05-23T12:54:18.036Z,29.09
2018-05-23T12:56:58.774Z,28.68
2018-05-23T12:59:31.836Z,28.27
2018-05-23T13:53:08.532Z,22.60
2018-05-23T13:55:45.995Z,22.34
2018-05-23T13:58:32.434Z,22.16
2018-05-23T14:01:11.158Z,22.02
2018-05-23T14:03:53.456Z,21.87
2018-05-23T14:06:38.892Z,21.78
2018-05-23T14:12:30.140Z,21.61
2018-05-23T14:15:09.495Z,21.50
2018-05-23T14:17:47.361Z,21.41
2018-05-23T14:20:38.838Z,21.33
2018-05-23T14:23:16.413Z,21.28
2018-05-23T14:25:55.058Z,21.26
2018-05-23T14:28:32.544Z,21.29
2018-05-23T14:34:05.655Z,21.34
2018-05-23T14:36:52.039Z,21.41
2018-05-23T14:39:46.024Z,21.44
2018-05-23T14:42:18.836Z,21.47
2018-05-23T14:44:52.391Z,21.52
2018-05-23T14:47:26.135Z,21.45
2018-05-23T14:49:58.891Z,21.37
2018-05-23T14:52:36.774Z,21.31
2018-05-23T14:55:11.711Z,21.28
2018-05-23T14:57:44.103Z,21.24
2018-05-23T15:00:17.921Z,21.20
2018-05-23T15:02:53.532Z,21.19
2018-05-23T15:05:26.456Z,21.17
2018-05-23T15:08:03.894Z,21.23
2018-05-23T15:10:37.457Z,21.27
2018-05-23T15:13:11.518Z,21.20
2018-05-23T15:15:45.825Z,21.17
2018-05-23T15:18:18.631Z,21.16
2018-05-23T15:20:56.409Z,21.20
2018-05-23T15:23:29.753Z,21.23
2018-05-23T15:26:05.183Z,21.29
2018-05-23T15:28:37.132Z,21.32
2018-05-23T15:31:16.079Z,21.33
2018-05-23T15:33:47.532Z,21.34
2018-05-23T15:36:31.378Z,21.36
2018-05-23T15:39:04.780Z,21.36
2018-05-23T15:41:41.474Z,21.37
2018-05-23T15:44:17.996Z,21.35
2018-05-23T15:46:52.258Z,21.33
2018-05-23T15:49:26.615Z,21.30
2018-05-23T15:52:00.075Z,21.30
2018-05-23T15:54:34.534Z,21.34
2018-05-23T15:57:10.452Z,21.37
2018-05-23T15:59:46.535Z,21.37
2018-05-23T16:02:21.174Z,21.33
2018-05-23T16:04:56.636Z,21.28
2018-05-23T16:07:30.131Z,21.21
2018-05-23T16:10:02.713Z,21.18
2018-05-23T16:12:35.656Z,21.20
2018-05-23T16:15:10.561Z,21.26
2018-05-23T16:17:50.114Z,21.28
2018-05-23T16:47:19.933Z,20.67
2018-05-23T16:49:53.697Z,20.65
2018-05-23T16:52:26.557Z,20.67
2018-05-23T16:55:00.731Z,20.71
2018-05-23T16:57:32.477Z,20.67
2018-05-23T17:00:06.662Z,20.60
2018-05-23T17:02:40.632Z,20.60
2018-05-23T17:05:13.494Z,20.57
2018-05-23T17:07:47.114Z,20.55
2018-05-23T17:10:20.950Z,20.58
2018-05-23T17:12:53.692Z,20.55
2018-05-23T17:15:27.498Z,20.57
2018-05-23T17:18:00.955Z,20.56
2018-05-23T17:20:33.779Z,20.54
2018-05-23T17:23:07.375Z,20.57
2018-05-23T17:25:42.779Z,20.64
2018-05-23T17:28:18.193Z,20.65
2018-05-23T17:30:51.489Z,20.69
2018-05-23T17:33:24.587Z,20.67
2018-05-23T17:35:58.198Z,20.59
2018-05-23T17:38:31.856Z,20.54
2018-05-23T17:41:04.632Z,20.53
2018-05-23T17:43:39.153Z,20.54
2018-05-23T17:46:11.853Z,20.51
2018-05-23T17:48:46.812Z,20.47
2018-05-23T17:51:19.271Z,20.42
2018-05-23T17:53:52.537Z,20.40
2018-05-23T17:56:26.340Z,20.39
2018-05-23T17:58:59.173Z,20.37
2018-05-23T18:01:32.438Z,20.34
2018-05-23T18:04:04.655Z,20.29
2018-05-23T18:06:43.674Z,20.23
2018-05-23T18:09:20.012Z,20.19
2018-05-23T18:11:53.023Z,20.14
2018-05-23T18:14:27.415Z,20.09
2018-05-23T18:17:02.411Z,20.05
2018-05-23T18:19:36.096Z,20.00
2018-05-23T18:22:09.699Z,19.94
2018-05-23T18:24:42.111Z,19.92
2018-05-23T18:27:16.056Z,19.88
2018-05-23T18:29:54.876Z,19.83
2018-05-23T18:32:28.739Z,19.77
2018-05-23T18:35:01.056Z,19.74
2018-05-23T18:37:33.735Z,19.70
2018-05-23T18:40:08.553Z,19.68
2018-05-23T18:42:41.870Z,19.63
2018-05-23T18:45:17.500Z,19.59
2018-05-23T18:47:50.680Z,19.55
2018-05-23T18:50:23.536Z,19.52
2018-05-23T18:52:56.596Z,19.49
2018-05-23T18:55:29.173Z,19.45
2018-05-23T18:58:01.738Z,19.43
2018-05-23T19:00:33.914Z,19.38
2018-05-23T20:17:43.271Z,18.45
2018-05-23T20:20:16.632Z,18.45
2018-05-23T20:22:50.396Z,18.46
2018-05-23T20:25:22.716Z,18.48
2018-05-23T20:27:55.212Z,18.47
2018-05-23T20:30:28.575Z,18.50
2018-05-23T20:33:01.595Z,18.51
2018-05-23T20:35:34.149Z,18.49
2018-05-23T20:38:06.579Z,18.49
2018-05-23T20:40:40.077Z,18.48
2018-05-23T20:43:12.537Z,18.48
2018-05-23T20:45:47.474Z,18.47
2018-05-23T20:48:22.690Z,18.45
2018-05-23T20:50:55.996Z,18.43
2018-05-23T20:53:28.160Z,18.40
2018-05-23T22:10:36.666Z,17.98
2018-05-23T22:35:11.323Z,17.99
2018-05-23T22:37:43.441Z,17.99
2018-05-23T22:40:16.123Z,18.02
2018-05-23T22:42:49.059Z,18.03
2018-05-23T22:45:22.341Z,18.03
2018-05-23T22:47:55.397Z,18.05
2018-05-23T22:50:28.385Z,18.05
2018-05-23T22:53:01.101Z,18.04
2018-05-23T22:55:34.402Z,18.04
2018-05-23T22:58:07.987Z,18.02
2018-05-23T23:00:40.843Z,18.00
2018-05-23T23:03:13.721Z,17.98
2018-05-23T23:05:46.961Z,18.00
2018-05-23T23:08:20.297Z,18.02
2018-05-23T23:10:54.283Z,18.02
2018-05-23T23:13:26.444Z,18.00
2018-05-23T23:15:58.763Z,18.01
2018-05-23T23:18:32.860Z,18.02
2018-05-23T23:21:05.601Z,18.03
2018-05-23T23:23:37.819Z,18.04
2018-05-23T23:26:10.862Z,18.05
2018-05-23T23:28:44.900Z,18.05
2018-05-23T23:31:17.522Z,18.06
2018-05-23T23:33:50.863Z,18.06
2018-05-23T23:36:23.761Z,18.06
2018-05-23T23:38:55.908Z,18.05
2018-05-23T23:41:28.969Z,18.07
2018-05-23T23:44:02.062Z,18.07
2018-05-23T23:46:34.963Z,18.07
2018-05-23T23:49:08.484Z,18.05
2018-05-23T23:51:40.867Z,18.06
2018-05-23T23:54:13.139Z,18.04
2018-05-23T23:56:45.464Z,18.04
2018-05-23T23:59:17.484Z,18.04
